FLE weather

CLOSED Fort Lee Army Airfield
Fort Lee, Virginia, United States

Public forecast

Using degrees Fahrenheit for public forecast. Weather courtesy of forecast.io.

Closest aviation weather report (METAR) to Fort Lee Army Airfield

Closest report is Dinwiddie County Airport, 9.8 nm (18.2 km) SW. Retrieved 2020/01/22 13:35 UTC (12 minutes ago):

KPTB 221335Z AUTO 35006KT 10SM CLR M03/M09 A3051 RMK AO2 T10351092

Closest aviation forecast (TAF) to Fort Lee Army Airfield

Closest forecast is Richmond International Airport, 13.3 nm (24.7 km) N. Retrieved 2020/01/22 12:24 UTC (1 hour ago):

TAF KRIC 221122Z 2212/2312 35006KT P6SM SKC FM222200 03003KT P6SM SKC